sensor_id;sensor_type;location;lat;lon;timestamp;P1;durP1;ratioP1;P2;durP2;ratioP2
70800;SDS011;59616;52.170;5.386;2023-03-23T00:00:58;10.32;;;3.75;;
70800;SDS011;59616;52.170;5.386;2023-03-23T00:03:24;11.45;;;3.70;;
70800;SDS011;59616;52.170;5.386;2023-03-23T00:05:54;9.85;;;3.83;;
70800;SDS011;59616;52.170;5.386;2023-03-23T00:08:27;9.57;;;3.13;;
70800;SDS011;59616;52.170;5.386;2023-03-23T00:10:53;11.32;;;3.63;;
70800;SDS011;59616;52.170;5.386;2023-03-23T00:13:26;10.43;;;3.78;;
70800;SDS011;59616;52.170;5.386;2023-03-23T00:15:53;11.23;;;3.30;;
70800;SDS011;59616;52.170;5.386;2023-03-23T00:18:19;10.18;;;3.40;;
70800;SDS011;59616;52.170;5.386;2023-03-23T00:20:46;9.85;;;2.90;;
70800;SDS011;59616;52.170;5.386;2023-03-23T00:23:17;12.60;;;3.47;;
70800;SDS011;59616;52.170;5.386;2023-03-23T00:25:47;13.15;;;3.35;;
70800;SDS011;59616;52.170;5.386;2023-03-23T00:28:15;9.82;;;3.15;;
70800;SDS011;59616;52.170;5.386;2023-03-23T00:30:43;8.85;;;3.17;;
70800;SDS011;59616;52.170;5.386;2023-03-23T00:33:10;8.20;;;2.95;;
70800;SDS011;59616;52.170;5.386;2023-03-23T00:35:41;9.43;;;3.03;;
70800;SDS011;59616;52.170;5.386;2023-03-23T00:38:09;9.43;;;3.35;;
70800;SDS011;59616;52.170;5.386;2023-03-23T00:40:35;11.05;;;2.97;;
70800;SDS011;59616;52.170;5.386;2023-03-23T00:43:02;7.50;;;2.85;;
70800;SDS011;59616;52.170;5.386;2023-03-23T00:45:28;9.68;;;3.20;;
70800;SDS011;59616;52.170;5.386;2023-03-23T00:47:55;8.27;;;3.13;;
70800;SDS011;59616;52.170;5.386;2023-03-23T00:50:22;8.73;;;2.65;;
70800;SDS011;59616;52.170;5.386;2023-03-23T00:52:48;10.85;;;3.00;;
70800;SDS011;59616;52.170;5.386;2023-03-23T00:55:17;11.05;;;2.80;;
70800;SDS011;59616;52.170;5.386;2023-03-23T00:57:44;10.63;;;2.90;;
70800;SDS011;59616;52.170;5.386;2023-03-23T01:00:10;6.75;;;2.63;;
70800;SDS011;59616;52.170;5.386;2023-03-23T01:02:36;8.73;;;3.13;;
70800;SDS011;59616;52.170;5.386;2023-03-23T01:05:05;6.97;;;2.53;;
70800;SDS011;59616;52.170;5.386;2023-03-23T01:07:32;7.20;;;2.35;;
70800;SDS011;59616;52.170;5.386;2023-03-23T01:10:00;8.55;;;2.80;;
70800;SDS011;59616;52.170;5.386;2023-03-23T01:14:54;9.55;;;2.50;;
70800;SDS011;59616;52.170;5.386;2023-03-23T01:17:20;8.45;;;2.45;;
70800;SDS011;59616;52.170;5.386;2023-03-23T01:19:46;9.60;;;2.60;;
70800;SDS011;59616;52.170;5.386;2023-03-23T01:22:12;10.27;;;2.63;;
70800;SDS011;59616;52.170;5.386;2023-03-23T01:24:38;8.68;;;2.63;;
70800;SDS011;59616;52.170;5.386;2023-03-23T01:27:04;7.55;;;2.33;;
70800;SDS011;59616;52.170;5.386;2023-03-23T01:29:32;7.60;;;2.67;;
70800;SDS011;59616;52.170;5.386;2023-03-23T01:31:59;7.00;;;2.40;;
70800;SDS011;59616;52.170;5.386;2023-03-23T01:34:26;7.10;;;2.63;;
70800;SDS011;59616;52.170;5.386;2023-03-23T01:36:52;6.63;;;2.45;;
70800;SDS011;59616;52.170;5.386;2023-03-23T01:39:18;7.97;;;2.65;;
70800;SDS011;59616;52.170;5.386;2023-03-23T01:47:03;9.63;;;2.72;;
70800;SDS011;59616;52.170;5.386;2023-03-23T01:49:31;8.18;;;2.42;;
70800;SDS011;59616;52.170;5.386;2023-03-23T01:52:08;9.35;;;2.55;;
70800;SDS011;59616;52.170;5.386;2023-03-23T01:54:35;7.63;;;2.50;;
70800;SDS011;59616;52.170;5.386;2023-03-23T01:57:04;8.10;;;2.42;;
70800;SDS011;59616;52.170;5.386;2023-03-23T01:59:31;10.80;;;2.50;;
70800;SDS011;59616;52.170;5.386;2023-03-23T02:02:15;6.80;;;2.22;;
70800;SDS011;59616;52.170;5.386;2023-03-23T02:04:42;6.07;;;2.10;;
70800;SDS011;59616;52.170;5.386;2023-03-23T02:07:09;5.82;;;2.15;;
70800;SDS011;59616;52.170;5.386;2023-03-23T02:09:37;8.00;;;2.25;;
70800;SDS011;59616;52.170;5.386;2023-03-23T02:12:04;6.18;;;2.28;;
70800;SDS011;59616;52.170;5.386;2023-03-23T02:14:31;8.02;;;2.42;;
70800;SDS011;59616;52.170;5.386;2023-03-23T02:16:59;7.25;;;2.50;;
70800;SDS011;59616;52.170;5.386;2023-03-23T02:24:53;7.65;;;2.30;;
70800;SDS011;59616;52.170;5.386;2023-03-23T02:35:58;7.18;;;2.50;;
70800;SDS011;59616;52.170;5.386;2023-03-23T02:38:38;7.25;;;2.53;;
70800;SDS011;59616;52.170;5.386;2023-03-23T02:41:07;7.72;;;2.63;;
70800;SDS011;59616;52.170;5.386;2023-03-23T02:43:36;8.63;;;2.88;;
70800;SDS011;59616;52.170;5.386;2023-03-23T02:46:05;8.95;;;2.55;;
70800;SDS011;59616;52.170;5.386;2023-03-23T02:48:33;8.70;;;2.67;;
70800;SDS011;59616;52.170;5.386;2023-03-23T02:51:00;8.55;;;2.60;;
70800;SDS011;59616;52.170;5.386;2023-03-23T02:53:27;9.60;;;2.80;;
70800;SDS011;59616;52.170;5.386;2023-03-23T02:55:55;7.20;;;2.40;;
70800;SDS011;59616;52.170;5.386;2023-03-23T02:58:26;8.05;;;2.90;;
70800;SDS011;59616;52.170;5.386;2023-03-23T03:03:22;7.28;;;2.67;;
70800;SDS011;59616;52.170;5.386;2023-03-23T03:10:53;8.45;;;2.80;;
70800;SDS011;59616;52.170;5.386;2023-03-23T03:16:06;6.70;;;2.53;;
70800;SDS011;59616;52.170;5.386;2023-03-23T03:18:42;8.60;;;3.08;;
70800;SDS011;59616;52.170;5.386;2023-03-23T03:21:10;8.02;;;2.60;;
70800;SDS011;59616;52.170;5.386;2023-03-23T03:23:39;6.95;;;2.45;;
70800;SDS011;59616;52.170;5.386;2023-03-23T03:26:06;6.80;;;2.28;;
70800;SDS011;59616;52.170;5.386;2023-03-23T03:28:48;6.55;;;2.28;;
70800;SDS011;59616;52.170;5.386;2023-03-23T03:31:17;7.80;;;2.10;;
70800;SDS011;59616;52.170;5.386;2023-03-23T03:33:44;6.60;;;2.00;;
70800;SDS011;59616;52.170;5.386;2023-03-23T03:36:15;5.97;;;2.00;;
70800;SDS011;59616;52.170;5.386;2023-03-23T03:38:43;7.30;;;2.10;;
70800;SDS011;59616;52.170;5.386;2023-03-23T03:41:09;6.75;;;2.00;;
70800;SDS011;59616;52.170;5.386;2023-03-23T03:43:35;7.40;;;1.83;;
70800;SDS011;59616;52.170;5.386;2023-03-23T03:46:03;3.88;;;1.63;;
70800;SDS011;59616;52.170;5.386;2023-03-23T03:48:31;6.07;;;1.85;;
70800;SDS011;59616;52.170;5.386;2023-03-23T03:50:57;7.75;;;2.00;;
70800;SDS011;59616;52.170;5.386;2023-03-23T03:53:27;6.88;;;1.85;;
70800;SDS011;59616;52.170;5.386;2023-03-23T03:55:53;7.90;;;1.98;;
70800;SDS011;59616;52.170;5.386;2023-03-23T03:58:27;7.90;;;1.90;;
70800;SDS011;59616;52.170;5.386;2023-03-23T04:01:25;5.68;;;1.70;;
70800;SDS011;59616;52.170;5.386;2023-03-23T04:03:53;6.13;;;1.60;;
70800;SDS011;59616;52.170;5.386;2023-03-23T04:06:30;6.57;;;1.70;;
70800;SDS011;59616;52.170;5.386;2023-03-23T04:08:58;6.25;;;1.88;;
70800;SDS011;59616;52.170;5.386;2023-03-23T04:11:26;7.88;;;1.98;;
70800;SDS011;59616;52.170;5.386;2023-03-23T04:14:01;7.88;;;1.85;;
70800;SDS011;59616;52.170;5.386;2023-03-23T04:16:38;5.18;;;1.60;;
70800;SDS011;59616;52.170;5.386;2023-03-23T04:19:05;6.95;;;1.75;;
70800;SDS011;59616;52.170;5.386;2023-03-23T04:21:32;6.95;;;1.80;;
70800;SDS011;59616;52.170;5.386;2023-03-23T04:23:59;8.70;;;2.30;;
70800;SDS011;59616;52.170;5.386;2023-03-23T04:26:27;5.35;;;1.73;;
70800;SDS011;59616;52.170;5.386;2023-03-23T04:28:57;5.47;;;1.42;;
70800;SDS011;59616;52.170;5.386;2023-03-23T04:31:32;9.43;;;1.70;;
70800;SDS011;59616;52.170;5.386;2023-03-23T04:34:17;8.15;;;1.67;;
70800;SDS011;59616;52.170;5.386;2023-03-23T04:36:46;4.88;;;1.52;;
70800;SDS011;59616;52.170;5.386;2023-03-23T04:39:20;5.60;;;1.40;;
70800;SDS011;59616;52.170;5.386;2023-03-23T04:41:47;6.00;;;1.40;;
70800;SDS011;59616;52.170;5.386;2023-03-23T04:44:21;6.05;;;1.35;;
70800;SDS011;59616;52.170;5.386;2023-03-23T04:46:56;9.23;;;1.40;;
70800;SDS011;59616;52.170;5.386;2023-03-23T04:49:23;6.55;;;1.48;;
70800;SDS011;59616;52.170;5.386;2023-03-23T04:51:56;6.97;;;1.70;;
70800;SDS011;59616;52.170;5.386;2023-03-23T04:54:40;3.83;;;1.25;;
70800;SDS011;59616;52.170;5.386;2023-03-23T04:57:08;9.73;;;1.60;;
70800;SDS011;59616;52.170;5.386;2023-03-23T04:59:39;8.80;;;1.60;;
70800;SDS011;59616;52.170;5.386;2023-03-23T05:02:15;7.25;;;1.60;;
70800;SDS011;59616;52.170;5.386;2023-03-23T05:04:45;7.15;;;1.50;;
70800;SDS011;59616;52.170;5.386;2023-03-23T05:07:14;5.90;;;1.50;;
70800;SDS011;59616;52.170;5.386;2023-03-23T05:09:46;4.65;;;1.35;;
70800;SDS011;59616;52.170;5.386;2023-03-23T05:12:14;7.05;;;1.70;;
70800;SDS011;59616;52.170;5.386;2023-03-23T05:14:50;7.05;;;1.60;;
70800;SDS011;59616;52.170;5.386;2023-03-23T05:17:19;8.30;;;1.63;;
70800;SDS011;59616;52.170;5.386;2023-03-23T05:19:48;9.90;;;1.60;;
70800;SDS011;59616;52.170;5.386;2023-03-23T05:22:35;10.30;;;1.70;;
70800;SDS011;59616;52.170;5.386;2023-03-23T05:25:04;7.80;;;1.50;;
70800;SDS011;59616;52.170;5.386;2023-03-23T05:27:35;7.22;;;1.60;;
70800;SDS011;59616;52.170;5.386;2023-03-23T05:30:10;10.27;;;1.80;;
70800;SDS011;59616;52.170;5.386;2023-03-23T05:32:41;6.35;;;1.58;;
70800;SDS011;59616;52.170;5.386;2023-03-23T05:35:21;8.85;;;1.63;;
70800;SDS011;59616;52.170;5.386;2023-03-23T05:37:50;8.18;;;1.70;;
70800;SDS011;59616;52.170;5.386;2023-03-23T05:40:18;11.90;;;1.90;;
70800;SDS011;59616;52.170;5.386;2023-03-23T05:42:52;7.90;;;1.70;;
70800;SDS011;59616;52.170;5.386;2023-03-23T05:45:28;8.23;;;1.75;;
70800;SDS011;59616;52.170;5.386;2023-03-23T05:47:55;7.18;;;1.65;;
70800;SDS011;59616;52.170;5.386;2023-03-23T05:50:24;6.78;;;1.63;;
70800;SDS011;59616;52.170;5.386;2023-03-23T05:52:51;7.45;;;1.80;;
70800;SDS011;59616;52.170;5.386;2023-03-23T05:55:19;10.40;;;1.77;;
70800;SDS011;59616;52.170;5.386;2023-03-23T05:57:53;11.43;;;1.92;;
70800;SDS011;59616;52.170;5.386;2023-03-23T06:00:27;8.88;;;1.95;;
70800;SDS011;59616;52.170;5.386;2023-03-23T06:03:05;8.82;;;1.90;;
70800;SDS011;59616;52.170;5.386;2023-03-23T06:05:47;9.93;;;1.70;;
70800;SDS011;59616;52.170;5.386;2023-03-23T06:08:17;11.35;;;2.05;;
70800;SDS011;59616;52.170;5.386;2023-03-23T06:10:44;13.52;;;2.00;;
70800;SDS011;59616;52.170;5.386;2023-03-23T06:13:12;10.10;;;1.80;;
70800;SDS011;59616;52.170;5.386;2023-03-23T06:16:00;10.20;;;1.90;;
70800;SDS011;59616;52.170;5.386;2023-03-23T06:18:47;12.23;;;2.85;;
70800;SDS011;59616;52.170;5.386;2023-03-23T06:21:31;10.93;;;1.90;;
70800;SDS011;59616;52.170;5.386;2023-03-23T06:24:01;10.98;;;2.65;;
70800;SDS011;59616;52.170;5.386;2023-03-23T06:26:34;11.02;;;2.20;;
70800;SDS011;59616;52.170;5.386;2023-03-23T06:29:03;7.25;;;1.60;;
70800;SDS011;59616;52.170;5.386;2023-03-23T06:31:46;6.88;;;1.55;;
70800;SDS011;59616;52.170;5.386;2023-03-23T06:34:13;4.32;;;1.90;;
70800;SDS011;59616;52.170;5.386;2023-03-23T06:36:59;10.18;;;2.05;;
70800;SDS011;59616;52.170;5.386;2023-03-23T06:39:38;8.13;;;1.80;;
70800;SDS011;59616;52.170;5.386;2023-03-23T06:42:21;9.65;;;2.13;;
70800;SDS011;59616;52.170;5.386;2023-03-23T06:45:00;8.63;;;2.30;;
70800;SDS011;59616;52.170;5.386;2023-03-23T06:47:28;9.82;;;2.17;;
70800;SDS011;59616;52.170;5.386;2023-03-23T06:49:55;9.82;;;2.00;;
70800;SDS011;59616;52.170;5.386;2023-03-23T06:52:24;12.35;;;2.10;;
70800;SDS011;59616;52.170;5.386;2023-03-23T06:54:52;11.52;;;2.17;;
70800;SDS011;59616;52.170;5.386;2023-03-23T06:57:19;10.30;;;2.20;;
70800;SDS011;59616;52.170;5.386;2023-03-23T06:59:48;8.80;;;2.22;;
70800;SDS011;59616;52.170;5.386;2023-03-23T07:02:15;8.73;;;2.58;;
70800;SDS011;59616;52.170;5.386;2023-03-23T07:04:44;8.43;;;1.88;;
70800;SDS011;59616;52.170;5.386;2023-03-23T07:07:16;8.15;;;2.40;;
70800;SDS011;59616;52.170;5.386;2023-03-23T07:09:57;9.90;;;2.00;;
70800;SDS011;59616;52.170;5.386;2023-03-23T07:12:23;9.15;;;2.35;;
70800;SDS011;59616;52.170;5.386;2023-03-23T07:14:50;9.60;;;2.08;;
70800;SDS011;59616;52.170;5.386;2023-03-23T07:17:17;10.68;;;2.60;;
70800;SDS011;59616;52.170;5.386;2023-03-23T07:19:58;7.40;;;2.10;;
70800;SDS011;59616;52.170;5.386;2023-03-23T07:24:58;9.25;;;2.58;;
70800;SDS011;59616;52.170;5.386;2023-03-23T07:27:30;9.73;;;2.20;;
70800;SDS011;59616;52.170;5.386;2023-03-23T07:29:59;8.95;;;2.35;;
70800;SDS011;59616;52.170;5.386;2023-03-23T07:32:25;7.35;;;2.00;;
70800;SDS011;59616;52.170;5.386;2023-03-23T07:34:52;11.43;;;1.92;;
70800;SDS011;59616;52.170;5.386;2023-03-23T07:37:39;9.68;;;2.10;;
70800;SDS011;59616;52.170;5.386;2023-03-23T07:40:05;11.27;;;1.83;;
70800;SDS011;59616;52.170;5.386;2023-03-23T07:42:44;10.00;;;1.75;;
70800;SDS011;59616;52.170;5.386;2023-03-23T07:45:21;8.70;;;1.90;;
70800;SDS011;59616;52.170;5.386;2023-03-23T07:47:47;11.50;;;2.00;;
70800;SDS011;59616;52.170;5.386;2023-03-23T07:50:13;10.50;;;2.17;;
70800;SDS011;59616;52.170;5.386;2023-03-23T07:52:41;11.73;;;1.75;;
70800;SDS011;59616;52.170;5.386;2023-03-23T07:55:08;9.00;;;2.00;;
70800;SDS011;59616;52.170;5.386;2023-03-23T07:58:05;6.63;;;1.58;;
70800;SDS011;59616;52.170;5.386;2023-03-23T08:00:31;13.02;;;1.80;;
70800;SDS011;59616;52.170;5.386;2023-03-23T08:03:04;6.53;;;1.63;;
70800;SDS011;59616;52.170;5.386;2023-03-23T08:05:32;8.10;;;1.65;;
70800;SDS011;59616;52.170;5.386;2023-03-23T08:08:14;10.45;;;1.70;;
70800;SDS011;59616;52.170;5.386;2023-03-23T08:10:59;7.35;;;1.70;;
70800;SDS011;59616;52.170;5.386;2023-03-23T08:13:50;11.60;;;2.60;;
70800;SDS011;59616;52.170;5.386;2023-03-23T08:16:38;9.57;;;2.15;;
70800;SDS011;59616;52.170;5.386;2023-03-23T08:19:34;10.98;;;2.10;;
70800;SDS011;59616;52.170;5.386;2023-03-23T08:22:36;8.63;;;2.30;;
70800;SDS011;59616;52.170;5.386;2023-03-23T08:25:23;9.80;;;1.80;;
70800;SDS011;59616;52.170;5.386;2023-03-23T08:28:17;11.80;;;2.10;;
70800;SDS011;59616;52.170;5.386;2023-03-23T08:31:11;10.93;;;2.00;;
70800;SDS011;59616;52.170;5.386;2023-03-23T08:33:54;7.88;;;1.73;;
70800;SDS011;59616;52.170;5.386;2023-03-23T08:36:36;7.45;;;2.40;;
70800;SDS011;59616;52.170;5.386;2023-03-23T08:39:29;7.85;;;2.10;;
70800;SDS011;59616;52.170;5.386;2023-03-23T08:42:07;5.60;;;1.67;;
70800;SDS011;59616;52.170;5.386;2023-03-23T08:44:56;11.45;;;1.85;;
70800;SDS011;59616;52.170;5.386;2023-03-23T08:47:43;10.07;;;2.20;;
70800;SDS011;59616;52.170;5.386;2023-03-23T08:50:36;9.68;;;1.85;;
70800;SDS011;59616;52.170;5.386;2023-03-23T08:56:14;8.30;;;1.80;;
70800;SDS011;59616;52.170;5.386;2023-03-23T08:59:03;12.05;;;2.35;;
70800;SDS011;59616;52.170;5.386;2023-03-23T09:01:35;9.82;;;2.05;;
70800;SDS011;59616;52.170;5.386;2023-03-23T09:04:21;10.65;;;2.10;;
70800;SDS011;59616;52.170;5.386;2023-03-23T09:07:05;10.57;;;2.08;;
70800;SDS011;59616;52.170;5.386;2023-03-23T09:09:32;8.27;;;2.00;;
70800;SDS011;59616;52.170;5.386;2023-03-23T09:11:59;13.43;;;2.33;;
70800;SDS011;59616;52.170;5.386;2023-03-23T09:14:25;11.68;;;1.88;;
70800;SDS011;59616;52.170;5.386;2023-03-23T09:16:52;7.75;;;1.90;;
70800;SDS011;59616;52.170;5.386;2023-03-23T09:19:18;9.48;;;1.83;;
70800;SDS011;59616;52.170;5.386;2023-03-23T09:21:45;9.27;;;1.70;;
70800;SDS011;59616;52.170;5.386;2023-03-23T09:24:11;12.00;;;2.25;;
70800;SDS011;59616;52.170;5.386;2023-03-23T09:26:37;5.65;;;1.67;;
70800;SDS011;59616;52.170;5.386;2023-03-23T09:29:04;10.65;;;2.40;;
70800;SDS011;59616;52.170;5.386;2023-03-23T09:31:30;10.30;;;2.42;;
70800;SDS011;59616;52.170;5.386;2023-03-23T09:33:56;10.35;;;2.00;;
70800;SDS011;59616;52.170;5.386;2023-03-23T09:36:24;7.68;;;1.88;;
70800;SDS011;59616;52.170;5.386;2023-03-23T09:38:56;9.50;;;1.95;;
70800;SDS011;59616;52.170;5.386;2023-03-23T09:46:34;10.80;;;1.83;;
70800;SDS011;59616;52.170;5.386;2023-03-23T09:49:03;7.30;;;1.83;;
70800;SDS011;59616;52.170;5.386;2023-03-23T09:54:19;11.82;;;2.38;;
70800;SDS011;59616;52.170;5.386;2023-03-23T09:56:48;11.10;;;1.70;;
70800;SDS011;59616;52.170;5.386;2023-03-23T10:01:52;11.50;;;1.95;;
70800;SDS011;59616;52.170;5.386;2023-03-23T10:04:24;12.98;;;1.75;;
70800;SDS011;59616;52.170;5.386;2023-03-23T10:06:52;11.70;;;1.73;;
70800;SDS011;59616;52.170;5.386;2023-03-23T10:09:19;10.55;;;1.83;;
70800;SDS011;59616;52.170;5.386;2023-03-23T10:11:54;8.95;;;1.80;;
70800;SDS011;59616;52.170;5.386;2023-03-23T10:14:25;12.20;;;1.73;;
70800;SDS011;59616;52.170;5.386;2023-03-23T10:19:23;8.32;;;1.70;;
70800;SDS011;59616;52.170;5.386;2023-03-23T10:21:54;8.60;;;1.58;;
70800;SDS011;59616;52.170;5.386;2023-03-23T10:24:36;9.38;;;1.88;;
70800;SDS011;59616;52.170;5.386;2023-03-23T10:29:53;14.45;;;2.00;;
70800;SDS011;59616;52.170;5.386;2023-03-23T10:32:21;10.45;;;2.10;;
70800;SDS011;59616;52.170;5.386;2023-03-23T10:34:57;10.15;;;1.67;;
70800;SDS011;59616;52.170;5.386;2023-03-23T10:37:25;8.57;;;1.52;;
70800;SDS011;59616;52.170;5.386;2023-03-23T10:39:53;7.32;;;1.42;;
70800;SDS011;59616;52.170;5.386;2023-03-23T10:42:30;8.05;;;1.50;;
70800;SDS011;59616;52.170;5.386;2023-03-23T10:47:24;9.63;;;1.70;;
70800;SDS011;59616;52.170;5.386;2023-03-23T10:49:51;14.25;;;2.00;;
70800;SDS011;59616;52.170;5.386;2023-03-23T10:52:35;11.77;;;2.60;;
70800;SDS011;59616;52.170;5.386;2023-03-23T10:55:13;7.85;;;1.35;;
70800;SDS011;59616;52.170;5.386;2023-03-23T10:57:41;12.27;;;1.90;;
70800;SDS011;59616;52.170;5.386;2023-03-23T11:00:16;13.82;;;1.88;;
70800;SDS011;59616;52.170;5.386;2023-03-23T11:02:43;12.55;;;2.28;;
70800;SDS011;59616;52.170;5.386;2023-03-23T11:05:53;12.23;;;1.80;;
70800;SDS011;59616;52.170;5.386;2023-03-23T11:08:00;10.45;;;1.80;;
70800;SDS011;59616;52.170;5.386;2023-03-23T11:12:52;12.55;;;2.20;;
70800;SDS011;59616;52.170;5.386;2023-03-23T11:15:29;12.73;;;2.03;;
70800;SDS011;59616;52.170;5.386;2023-03-23T11:17:57;14.80;;;2.28;;
70800;SDS011;59616;52.170;5.386;2023-03-23T11:20:24;12.00;;;1.73;;
70800;SDS011;59616;52.170;5.386;2023-03-23T11:22:51;9.43;;;1.52;;
70800;SDS011;59616;52.170;5.386;2023-03-23T11:25:18;12.05;;;2.10;;
70800;SDS011;59616;52.170;5.386;2023-03-23T11:27:44;12.00;;;2.10;;
70800;SDS011;59616;52.170;5.386;2023-03-23T11:30:18;9.27;;;1.60;;
70800;SDS011;59616;52.170;5.386;2023-03-23T11:32:46;10.80;;;1.70;;
70800;SDS011;59616;52.170;5.386;2023-03-23T11:35:16;9.70;;;1.90;;
70800;SDS011;59616;52.170;5.386;2023-03-23T11:37:45;7.40;;;1.52;;
70800;SDS011;59616;52.170;5.386;2023-03-23T11:40:23;12.70;;;2.20;;
70800;SDS011;59616;52.170;5.386;2023-03-23T11:45:20;11.73;;;1.60;;
70800;SDS011;59616;52.170;5.386;2023-03-23T11:50:26;9.82;;;1.95;;
70800;SDS011;59616;52.170;5.386;2023-03-23T11:55:53;8.30;;;1.58;;
70800;SDS011;59616;52.170;5.386;2023-03-23T11:58:20;7.70;;;1.45;;
70800;SDS011;59616;52.170;5.386;2023-03-23T12:00:55;10.10;;;2.00;;
70800;SDS011;59616;52.170;5.386;2023-03-23T12:03:21;9.25;;;1.65;;
70800;SDS011;59616;52.170;5.386;2023-03-23T12:06:02;11.60;;;1.85;;
70800;SDS011;59616;52.170;5.386;2023-03-23T12:08:43;10.70;;;1.90;;
70800;SDS011;59616;52.170;5.386;2023-03-23T12:11:23;10.02;;;1.77;;
70800;SDS011;59616;52.170;5.386;2023-03-23T12:16:58;12.70;;;1.98;;
70800;SDS011;59616;52.170;5.386;2023-03-23T12:22:01;9.40;;;1.83;;
70800;SDS011;59616;52.170;5.386;2023-03-23T12:27:32;8.93;;;1.50;;
70800;SDS011;59616;52.170;5.386;2023-03-23T12:35:35;8.48;;;1.90;;
70800;SDS011;59616;52.170;5.386;2023-03-23T12:45:43;10.63;;;1.70;;
70800;SDS011;59616;52.170;5.386;2023-03-23T12:48:16;6.65;;;1.20;;
70800;SDS011;59616;52.170;5.386;2023-03-23T12:53:27;8.00;;;1.70;;
70800;SDS011;59616;52.170;5.386;2023-03-23T12:56:16;9.07;;;1.48;;
70800;SDS011;59616;52.170;5.386;2023-03-23T12:58:44;8.98;;;1.65;;
70800;SDS011;59616;52.170;5.386;2023-03-23T13:06:10;8.15;;;1.50;;
70800;SDS011;59616;52.170;5.386;2023-03-23T13:08:40;8.85;;;1.40;;
70800;SDS011;59616;52.170;5.386;2023-03-23T13:11:10;9.00;;;1.55;;
70800;SDS011;59616;52.170;5.386;2023-03-23T13:13:53;7.57;;;1.48;;
70800;SDS011;59616;52.170;5.386;2023-03-23T13:22:18;9.40;;;1.40;;
70800;SDS011;59616;52.170;5.386;2023-03-23T13:24:43;5.82;;;1.40;;
70800;SDS011;59616;52.170;5.386;2023-03-23T13:27:09;5.03;;;1.50;;
70800;SDS011;59616;52.170;5.386;2023-03-23T13:29:43;7.80;;;1.67;;
70800;SDS011;59616;52.170;5.386;2023-03-23T13:32:11;7.80;;;1.70;;
70800;SDS011;59616;52.170;5.386;2023-03-23T13:34:38;9.38;;;1.42;;
70800;SDS011;59616;52.170;5.386;2023-03-23T13:37:08;8.65;;;1.45;;
70800;SDS011;59616;52.170;5.386;2023-03-23T13:39:59;12.25;;;1.50;;
70800;SDS011;59616;52.170;5.386;2023-03-23T13:42:27;8.40;;;1.48;;
70800;SDS011;59616;52.170;5.386;2023-03-23T13:47:46;6.78;;;1.40;;
70800;SDS011;59616;52.170;5.386;2023-03-23T13:55:27;9.77;;;1.65;;
70800;SDS011;59616;52.170;5.386;2023-03-23T13:58:09;7.28;;;1.23;;
70800;SDS011;59616;52.170;5.386;2023-03-23T14:00:37;4.90;;;1.23;;
70800;SDS011;59616;52.170;5.386;2023-03-23T14:08:19;6.43;;;1.40;;
70800;SDS011;59616;52.170;5.386;2023-03-23T14:10:53;4.47;;;1.33;;
70800;SDS011;59616;52.170;5.386;2023-03-23T14:13:28;11.18;;;1.90;;
70800;SDS011;59616;52.170;5.386;2023-03-23T14:18:26;7.00;;;1.30;;
70800;SDS011;59616;52.170;5.386;2023-03-23T14:20:52;8.93;;;1.65;;
70800;SDS011;59616;52.170;5.386;2023-03-23T14:23:19;7.82;;;1.67;;
70800;SDS011;59616;52.170;5.386;2023-03-23T14:25:53;8.23;;;1.75;;
70800;SDS011;59616;52.170;5.386;2023-03-23T14:28:20;8.55;;;1.50;;
70800;SDS011;59616;52.170;5.386;2023-03-23T14:30:48;9.23;;;1.60;;
70800;SDS011;59616;52.170;5.386;2023-03-23T14:33:15;11.25;;;2.08;;
70800;SDS011;59616;52.170;5.386;2023-03-23T14:35:42;6.90;;;1.73;;
70800;SDS011;59616;52.170;5.386;2023-03-23T14:38:21;10.68;;;2.08;;
70800;SDS011;59616;52.170;5.386;2023-03-23T14:40:51;7.57;;;2.00;;
70800;SDS011;59616;52.170;5.386;2023-03-23T14:43:19;11.55;;;1.90;;
70800;SDS011;59616;52.170;5.386;2023-03-23T14:45:47;12.30;;;2.88;;
70800;SDS011;59616;52.170;5.386;2023-03-23T14:48:14;7.05;;;1.90;;
70800;SDS011;59616;52.170;5.386;2023-03-23T14:50:51;6.57;;;1.45;;
70800;SDS011;59616;52.170;5.386;2023-03-23T14:53:37;8.85;;;2.00;;
70800;SDS011;59616;52.170;5.386;2023-03-23T14:56:10;7.82;;;1.80;;
70800;SDS011;59616;52.170;5.386;2023-03-23T14:58:37;10.02;;;1.58;;
70800;SDS011;59616;52.170;5.386;2023-03-23T15:03:38;11.63;;;1.80;;
70800;SDS011;59616;52.170;5.386;2023-03-23T15:06:25;8.27;;;1.40;;
70800;SDS011;59616;52.170;5.386;2023-03-23T15:08:53;11.80;;;1.83;;
70800;SDS011;59616;52.170;5.386;2023-03-23T15:11:24;9.55;;;1.65;;
70800;SDS011;59616;52.170;5.386;2023-03-23T15:13:54;9.70;;;2.00;;
70800;SDS011;59616;52.170;5.386;2023-03-23T15:16:26;9.77;;;1.90;;
70800;SDS011;59616;52.170;5.386;2023-03-23T15:18:56;13.70;;;1.58;;
70800;SDS011;59616;52.170;5.386;2023-03-23T15:21:28;7.05;;;1.63;;
70800;SDS011;59616;52.170;5.386;2023-03-23T15:23:54;8.68;;;1.83;;
70800;SDS011;59616;52.170;5.386;2023-03-23T15:26:24;9.32;;;1.98;;
70800;SDS011;59616;52.170;5.386;2023-03-23T15:29:00;10.25;;;1.80;;
70800;SDS011;59616;52.170;5.386;2023-03-23T15:31:26;12.82;;;2.20;;
70800;SDS011;59616;52.170;5.386;2023-03-23T15:33:55;9.82;;;1.60;;
70800;SDS011;59616;52.170;5.386;2023-03-23T15:36:22;5.68;;;1.20;;
70800;SDS011;59616;52.170;5.386;2023-03-23T15:38:48;9.40;;;1.88;;
70800;SDS011;59616;52.170;5.386;2023-03-23T15:41:22;11.27;;;2.00;;
70800;SDS011;59616;52.170;5.386;2023-03-23T15:43:50;11.60;;;2.10;;
70800;SDS011;59616;52.170;5.386;2023-03-23T15:51:11;9.07;;;1.60;;
70800;SDS011;59616;52.170;5.386;2023-03-23T15:53:38;9.98;;;1.80;;
70800;SDS011;59616;52.170;5.386;2023-03-23T15:56:05;8.85;;;1.48;;
70800;SDS011;59616;52.170;5.386;2023-03-23T15:58:31;12.20;;;2.10;;
70800;SDS011;59616;52.170;5.386;2023-03-23T16:00:59;8.88;;;1.95;;
70800;SDS011;59616;52.170;5.386;2023-03-23T16:03:34;11.68;;;1.67;;
70800;SDS011;59616;52.170;5.386;2023-03-23T16:08:30;7.80;;;1.42;;
70800;SDS011;59616;52.170;5.386;2023-03-23T16:10:57;8.90;;;1.60;;
70800;SDS011;59616;52.170;5.386;2023-03-23T16:13:25;9.02;;;1.48;;
70800;SDS011;59616;52.170;5.386;2023-03-23T16:15:53;7.50;;;1.70;;
70800;SDS011;59616;52.170;5.386;2023-03-23T16:18:21;8.73;;;1.75;;
70800;SDS011;59616;52.170;5.386;2023-03-23T16:20:48;8.43;;;1.52;;
70800;SDS011;59616;52.170;5.386;2023-03-23T16:23:16;10.10;;;1.67;;
70800;SDS011;59616;52.170;5.386;2023-03-23T16:25:43;9.38;;;1.70;;
70800;SDS011;59616;52.170;5.386;2023-03-23T16:28:11;12.65;;;2.15;;
70800;SDS011;59616;52.170;5.386;2023-03-23T16:30:39;8.65;;;1.70;;
70800;SDS011;59616;52.170;5.386;2023-03-23T16:33:06;7.78;;;1.70;;
70800;SDS011;59616;52.170;5.386;2023-03-23T16:35:34;11.60;;;2.00;;
70800;SDS011;59616;52.170;5.386;2023-03-23T16:38:02;6.93;;;1.75;;
70800;SDS011;59616;52.170;5.386;2023-03-23T16:40:35;12.20;;;1.85;;
70800;SDS011;59616;52.170;5.386;2023-03-23T16:43:02;12.23;;;2.15;;
70800;SDS011;59616;52.170;5.386;2023-03-23T16:45:34;10.18;;;2.03;;
70800;SDS011;59616;52.170;5.386;2023-03-23T16:48:02;9.88;;;1.92;;
70800;SDS011;59616;52.170;5.386;2023-03-23T16:50:31;13.80;;;1.80;;
70800;SDS011;59616;52.170;5.386;2023-03-23T16:52:58;10.73;;;1.92;;
70800;SDS011;59616;52.170;5.386;2023-03-23T16:55:25;8.18;;;1.80;;
70800;SDS011;59616;52.170;5.386;2023-03-23T16:57:53;11.85;;;1.88;;
70800;SDS011;59616;52.170;5.386;2023-03-23T17:03:05;8.73;;;1.92;;
70800;SDS011;59616;52.170;5.386;2023-03-23T17:05:34;10.90;;;2.00;;
70800;SDS011;59616;52.170;5.386;2023-03-23T17:08:02;10.55;;;1.98;;
70800;SDS011;59616;52.170;5.386;2023-03-23T17:10:29;13.52;;;2.35;;
70800;SDS011;59616;52.170;5.386;2023-03-23T17:12:57;9.05;;;2.15;;
70800;SDS011;59616;52.170;5.386;2023-03-23T17:15:24;10.32;;;1.88;;
70800;SDS011;59616;52.170;5.386;2023-03-23T17:17:51;12.35;;;2.13;;